Time;durP1;ratioP1;P1;durP2;ratioP2;P2;SDS_P1;SDS_P2;PMS_P1;PMS_P2;Temp;Humidity;BMP_temperature;BMP_pressure;BME280_temperature;BME280_humidity;BME280_pressure;Samples;Min_cycle;Max_cycle;Signal;HPM_P1;HPM_P2
2022/12/11 00:01:50;;;;;;;25.37;11.70;;;;;;;-1.26;89.80;100966.44;4956446;28;20077;-70
2022/12/11 00:04:15;;;;;;;22.77;12.17;;;;;;;-1.21;90.07;100967.06;4973438;28;20596;-72
2022/12/11 00:06:41;;;;;;;23.77;11.70;;;;;;;-1.07;89.44;100953.91;4956449;28;20114;-72
2022/12/11 00:09:07;;;;;;;22.20;10.90;;;;;;;-1.03;89.24;100960.78;4973762;28;20050;-72
2022/12/11 00:11:32;;;;;;;23.73;11.90;;;;;;;-0.96;89.03;100951.53;4973622;28;20030;-72
2022/12/11 00:13:58;;;;;;;23.63;11.87;;;;;;;-0.96;88.81;100962.19;4956181;28;20089;-72
2022/12/11 00:16:23;;;;;;;24.80;12.43;;;;;;;-1.11;89.46;100957.66;4956153;28;20038;-72
2022/12/11 00:18:48;;;;;;;27.13;12.43;;;;;;;-1.35;89.55;100948.34;4956342;28;20035;-71
2022/12/11 00:21:14;;;;;;;25.07;12.07;;;;;;;-1.18;88.54;100950.97;4956203;28;20061;-71
2022/12/11 00:23:40;;;;;;;24.23;11.57;;;;;;;-1.30;89.23;100951.63;4973176;28;20059;-71
2022/12/11 00:26:10;;;;;;;27.87;12.93;;;;;;;-1.32;89.74;100953.50;4973268;28;20558;-71
2022/12/11 00:28:36;;;;;;;29.07;12.80;;;;;;;-1.28;89.20;100955.06;4955890;28;20038;-71
2022/12/11 00:31:06;;;;;;;25.60;13.00;;;;;;;-1.26;89.44;100953.16;4956023;28;20085;-71
2022/12/11 00:33:31;;;;;;;25.07;12.70;;;;;;;-1.14;89.58;100963.16;4955748;28;20034;-70
2022/12/11 00:35:57;;;;;;;22.87;12.03;;;;;;;-1.02;89.90;100956.34;4955772;28;20029;-70
2022/12/11 00:38:23;;;;;;;23.50;11.90;;;;;;;-0.89;89.50;100958.25;4955352;28;20097;-70
2022/12/11 00:40:48;;;;;;;30.60;13.77;;;;;;;-0.92;89.41;100958.38;4972543;28;20089;-70
2022/12/11 00:43:14;;;;;;;22.37;12.00;;;;;;;-0.88;88.38;100959.94;4972915;28;20041;-71
2022/12/11 00:45:42;;;;;;;24.70;12.37;;;;;;;-0.97;88.65;100955.16;4972506;28;20022;-71
2022/12/11 00:48:08;;;;;;;23.30;12.43;;;;;;;-0.81;88.17;100957.81;4955982;28;20030;-71
2022/12/11 00:50:35;;;;;;;28.00;14.07;;;;;;;-1.02;88.42;100961.66;4955466;28;20123;-71
2022/12/11 00:53:00;;;;;;;26.77;12.87;;;;;;;-0.89;89.43;100958.25;4972534;28;20045;-71
2022/12/11 00:55:28;;;;;;;26.40;13.50;;;;;;;-0.99;89.28;100959.66;4955489;28;20037;-72
2022/12/11 00:57:54;;;;;;;27.37;13.47;;;;;;;-1.21;89.48;100957.31;4972162;28;20045;-71
2022/12/11 01:00:21;;;;;;;27.57;13.30;;;;;;;-1.11;88.73;100957.66;4955409;28;20022;-71
2022/12/11 01:02:47;;;;;;;28.07;14.40;;;;;;;-1.09;89.41;100950.50;4955364;28;20050;-71
2022/12/11 01:05:12;;;;;;;30.13;13.97;;;;;;;-1.01;88.57;100956.25;4955842;28;20077;-71
2022/12/11 01:07:37;;;;;;;26.10;12.43;;;;;;;-0.95;88.65;100947.94;4955348;28;20035;-71
2022/12/11 01:12:47;;;;;;;26.13;13.40;;;;;;;-0.91;88.91;100954.81;4972715;28;20038;-70
2022/12/11 01:15:13;;;;;;;31.83;13.80;;;;;;;-0.93;89.19;100951.38;4955176;28;20027;-71
2022/12/11 01:17:38;;;;;;;29.43;14.67;;;;;;;-1.02;89.47;100953.69;4954490;28;20460;-71
2022/12/11 01:20:04;;;;;;;28.57;14.33;;;;;;;-1.19;90.30;100951.91;4955136;28;20033;-72
2022/12/11 01:22:30;;;;;;;28.17;15.13;;;;;;;-1.24;90.92;100952.16;4971809;28;20026;-71
2022/12/11 01:24:56;;;;;;;31.40;15.63;;;;;;;-1.22;91.26;100960.06;4972392;28;20591;-71
2022/12/11 01:27:21;;;;;;;33.20;15.60;;;;;;;-1.38;92.18;100966.16;4972082;28;20459;-71
2022/12/11 01:29:46;;;;;;;34.67;16.53;;;;;;;-1.26;92.94;100948.72;4955206;28;20110;-71
2022/12/11 01:32:12;;;;;;;29.70;16.27;;;;;;;-1.16;93.80;100954.41;4954817;28;20039;-71
2022/12/11 01:34:37;;;;;;;33.17;17.47;;;;;;;-1.15;93.57;100961.44;4954681;28;20034;-70
2022/12/11 01:37:03;;;;;;;35.23;16.70;;;;;;;-1.35;94.34;100953.66;4954386;28;20067;-71
2022/12/11 01:39:29;;;;;;;34.83;18.70;;;;;;;-1.43;95.11;100957.59;4955121;28;20037;-70
2022/12/11 01:41:59;;;;;;;33.73;17.20;;;;;;;-1.40;95.11;100962.72;4954554;28;20042;-70
2022/12/11 01:44:25;;;;;;;33.13;16.67;;;;;;;-1.57;95.64;100960.06;4954799;28;20042;-70
2022/12/11 01:46:51;;;;;;;36.90;17.67;;;;;;;-1.75;96.18;100966.34;4954449;28;20395;-73
2022/12/11 01:49:19;;;;;;;35.77;18.17;;;;;;;-1.78;96.40;100966.47;4971491;28;20038;-70
2022/12/11 01:51:51;;;;;;;32.13;17.33;;;;;;;-1.76;96.41;100964.59;4954109;28;20507;-73
2022/12/11 01:54:20;;;;;;;31.70;17.03;;;;;;;-1.73;96.35;100969.75;4953818;28;20031;-74
2022/12/11 01:56:48;;;;;;;36.07;17.77;;;;;;;-1.72;96.05;100961.72;4954008;28;20069;-74
2022/12/11 01:59:18;;;;;;;34.87;16.67;;;;;;;-1.68;96.38;100962.44;4954260;28;20077;-70
2022/12/11 02:01:53;;;;;;;29.83;16.43;;;;;;;-1.78;96.90;100966.47;4953921;28;20061;-70
2022/12/11 02:04:18;;;;;;;32.40;16.53;;;;;;;-1.74;96.25;100962.75;4971300;28;20058;-71
2022/12/11 02:06:47;;;;;;;31.73;14.90;;;;;;;-1.88;96.55;100965.25;4953775;28;20484;-71
2022/12/11 02:09:26;;;;;;;28.40;14.17;;;;;;;-1.91;96.83;100961.78;4954572;28;20027;-71
2022/12/11 02:11:57;;;;;;;31.37;15.00;;;;;;;-2.01;96.82;100955.22;4953799;28;20094;-70
2022/12/11 02:14:48;;;;;;;30.10;15.88;;;;;;;-1.92;96.93;100960.06;4953793;28;20070;-71
2022/12/11 02:17:17;;;;;;;28.20;14.55;;;;;;;-1.72;96.93;100950.25;4953612;28;20508;-70
2022/12/11 02:20:08;;;;;;;32.73;15.57;;;;;;;-1.57;96.37;100952.09;4970970;28;20029;-71
2022/12/11 02:22:54;;;;;;;32.80;16.37;;;;;;;-1.59;96.55;100961.94;4953411;28;20027;-72
2022/12/11 02:25:43;;;;;;;33.53;16.63;;;;;;;-1.55;96.56;100952.91;4915071;28;20039;-70
2022/12/11 02:28:39;;;;;;;35.50;15.97;;;;;;;-1.49;96.82;100952.59;4953151;28;20039;-70
2022/12/11 02:31:17;;;;;;;34.97;16.43;;;;;;;-1.64;96.78;100967.50;4953806;28;20031;-70
2022/12/11 02:34:07;;;;;;;34.13;17.57;;;;;;;-1.60;97.62;100954.94;4953520;28;20054;-69
2022/12/11 02:36:37;;;;;;;28.47;14.17;;;;;;;-1.64;97.00;100948.06;4943148;28;20035;-70
2022/12/11 02:39:04;;;;;;;32.20;15.80;;;;;;;-1.57;96.38;100954.75;4953903;28;20023;-70
2022/12/11 02:41:31;;;;;;;27.57;14.40;;;;;;;-1.64;96.42;100958.66;4953883;28;20023;-70
2022/12/11 02:43:57;;;;;;;27.77;15.17;;;;;;;-1.60;96.62;100954.94;4971199;28;20014;-70
2022/12/11 02:46:24;;;;;;;30.97;16.17;;;;;;;-1.56;97.07;100948.53;4971101;28;20400;-70
2022/12/11 02:48:51;;;;;;;28.87;15.43;;;;;;;-1.44;96.35;100945.22;4953594;28;20019;-70
2022/12/11 02:51:23;;;;;;;32.57;16.00;;;;;;;-1.48;96.28;100951.66;4953184;28;20035;-70
2022/12/11 02:53:50;;;;;;;28.33;13.85;;;;;;;-1.63;96.81;100939.19;4954077;28;20499;-71
2022/12/11 02:56:22;;;;;;;31.50;16.30;;;;;;;-1.71;96.42;100936.03;4970447;28;20456;-72
2022/12/11 02:58:54;;;;;;;37.93;15.73;;;;;;;-1.71;96.94;100936.88;4970502;28;20066;-70
2022/12/11 03:01:20;;;;;;;48.35;17.10;;;;;;;-1.65;96.94;100946.34;4967532;28;20018;-70
2022/12/11 03:03:46;;;;;;;36.43;15.77;;;;;;;-1.61;97.05;100947.91;4972409;28;20027;-71
2022/12/11 03:06:17;;;;;;;32.03;15.33;;;;;;;-1.50;96.98;100948.22;4972941;28;20113;-70
2022/12/11 03:08:43;;;;;;;31.97;16.00;;;;;;;-1.50;97.16;100955.28;4972871;28;20499;-70
2022/12/11 03:11:10;;;;;;;29.57;14.97;;;;;;;-1.44;96.60;100949.69;4972782;28;20070;-71
2022/12/11 03:13:37;;;;;;;25.57;14.43;;;;;;;-1.45;96.38;100947.97;4972589;28;20031;-70
2022/12/11 03:16:16;;;;;;;28.27;13.70;;;;;;;-1.58;96.90;100942.44;4972950;28;20018;-72
2022/12/11 03:19:01;;;;;;;36.53;16.50;;;;;;;-1.37;96.32;100946.66;4972703;28;20116;-73
2022/12/11 03:21:35;;;;;;;37.00;17.07;;;;;;;-1.31;96.25;100945.44;4989760;28;20415;-72
2022/12/11 03:24:10;;;;;;;31.70;16.47;;;;;;;-1.56;97.26;100951.19;4973138;28;20121;-73
2022/12/11 03:26:42;;;;;;;31.63;15.97;;;;;;;-1.62;98.07;100950.66;4972508;28;20034;-73
2022/12/11 03:29:34;;;;;;;33.07;16.80;;;;;;;-1.68;97.44;100947.38;4972697;28;20026;-72
2022/12/11 03:32:08;;;;;;;37.40;18.13;;;;;;;-1.76;97.94;100943.38;4972869;28;20069;-72
2022/12/11 03:34:43;;;;;;;40.00;18.50;;;;;;;-1.66;97.78;100944.63;4993690;28;20041;-72
2022/12/11 03:37:11;;;;;;;34.77;17.97;;;;;;;-1.88;98.77;100949.31;4992991;28;20174;-72
2022/12/11 03:39:43;;;;;;;41.80;18.90;;;;;;;-1.78;98.71;100946.09;4976266;28;20037;-73
2022/12/11 03:42:11;;;;;;;38.65;19.48;;;;;;;-1.84;99.03;100945.56;4976001;28;20032;-72
2022/12/11 03:44:37;;;;;;;36.13;18.27;;;;;;;-1.76;99.29;100948.66;4993289;28;20030;-71
2022/12/11 03:47:06;;;;;;;37.00;18.37;;;;;;;-1.68;98.50;100941.19;4993162;28;20030;-73
2022/12/11 03:49:42;;;;;;;41.10;21.03;;;;;;;-1.52;98.71;100936.81;4975828;28;20034;-70
2022/12/11 03:52:10;;;;;;;37.43;18.10;;;;;;;-1.61;98.89;100942.59;4993177;28;20048;-71
2022/12/11 03:54:38;;;;;;;45.10;21.00;;;;;;;-1.68;98.50;100941.19;4977070;28;20026;-71
2022/12/11 03:57:06;;;;;;;36.57;18.50;;;;;;;-1.75;99.38;100950.41;4994580;28;20038;-70
2022/12/11 03:59:32;;;;;;;42.63;20.30;;;;;;;-1.92;98.82;100944.16;4977312;28;20068;-70
2022/12/11 04:01:57;;;;;;;42.60;20.03;;;;;;;-1.76;98.67;100940.72;4994565;28;20057;-72
2022/12/11 04:04:23;;;;;;;38.20;19.57;;;;;;;-1.70;98.34;100937.75;4977072;28;20034;-73
2022/12/11 04:06:48;;;;;;;37.93;19.17;;;;;;;-1.73;98.35;100937.91;4976989;28;20039;-72
2022/12/11 04:09:14;;;;;;;41.77;18.77;;;;;;;-1.70;98.46;100932.44;4994521;28;20037;-72
2022/12/11 04:11:41;;;;;;;34.67;17.70;;;;;;;-1.66;97.47;100928.69;4976788;28;20077;-70
2022/12/11 04:16:57;;;;;;;37.60;18.10;;;;;;;-1.61;97.38;100937.28;4994467;28;20096;-73
2022/12/11 04:24:54;;;;;;;35.17;17.80;;;;;;;-1.61;96.98;100929.31;4994601;28;20037;-70
2022/12/11 04:30:06;;;;;;;39.40;20.70;;;;;;;-1.35;96.78;100927.09;4994722;28;20026;-73
2022/12/11 04:32:32;;;;;;;36.67;17.93;;;;;;;-1.43;96.11;100925.72;4994061;28;20390;-70
2022/12/11 04:34:57;;;;;;;39.27;19.10;;;;;;;-1.45;96.70;100929.38;4977235;28;20113;-72
2022/12/11 04:37:23;;;;;;;38.07;19.87;;;;;;;-1.25;96.30;100925.66;4993888;28;20027;-71
2022/12/11 04:39:48;;;;;;;39.33;18.57;;;;;;;-1.15;95.74;100929.56;4993742;28;20023;-70
2022/12/11 04:42:13;;;;;;;38.33;19.67;;;;;;;-1.42;95.80;100927.44;4976777;28;20486;-70
2022/12/11 04:44:39;;;;;;;39.13;20.67;;;;;;;-1.39;95.62;100927.25;4993382;28;20039;-71
2022/12/11 04:47:04;;;;;;;38.53;20.10;;;;;;;-1.41;96.03;100929.16;4976148;28;20032;-70
2022/12/11 04:49:29;;;;;;;43.13;22.40;;;;;;;-1.39;95.72;100927.25;4994160;28;20026;-71
2022/12/11 04:51:55;;;;;;;44.23;21.10;;;;;;;-1.51;95.99;100938.50;4976509;28;20042;-70
2022/12/11 04:54:20;;;;;;;38.37;19.33;;;;;;;-1.34;95.54;100928.81;4993551;28;20030;-71
2022/12/11 04:56:45;;;;;;;38.37;20.53;;;;;;;-1.21;95.34;100920.13;4976619;28;20030;-72
2022/12/11 04:59:11;;;;;;;41.13;20.90;;;;;;;-1.29;95.13;100927.66;4993417;28;20034;-70
2022/12/11 05:01:36;;;;;;;37.23;19.47;;;;;;;-1.32;94.51;100927.78;4976035;28;20041;-71
2022/12/11 05:04:01;;;;;;;40.27;20.57;;;;;;;-1.31;94.92;100923.34;4976977;28;20085;-70
2022/12/11 05:06:26;;;;;;;37.97;20.30;;;;;;;-1.27;95.69;100919.59;4976484;28;20033;-70
2022/12/11 05:08:52;;;;;;;37.23;19.90;;;;;;;-1.31;94.95;100923.34;4975935;28;20022;-70
2022/12/11 05:11:18;;;;;;;37.00;19.20;;;;;;;-1.28;94.55;100912.56;4975606;28;20060;-70
2022/12/11 05:13:44;;;;;;;39.47;19.60;;;;;;;-1.31;94.33;100923.34;4975599;28;20030;-71
2022/12/11 05:16:12;;;;;;;37.53;18.60;;;;;;;-1.63;95.16;100917.94;4976355;28;20053;-70
2022/12/11 05:18:38;;;;;;;33.70;18.07;;;;;;;-1.43;95.66;100920.41;4975641;28;20122;-70
2022/12/11 05:21:06;;;;;;;38.63;19.33;;;;;;;-1.81;95.52;100919.75;4975668;28;20121;-70
2022/12/11 05:23:32;;;;;;;39.83;18.87;;;;;;;-1.47;94.86;100924.16;4992980;28;20076;-69
2022/12/11 05:26:00;;;;;;;37.47;17.83;;;;;;;-1.34;94.76;100923.50;4975533;28;20121;-70
2022/12/11 05:28:31;;;;;;;35.53;17.63;;;;;;;-1.35;94.34;100927.09;4975546;28;20052;-71
2022/12/11 05:30:57;;;;;;;38.40;18.97;;;;;;;-1.25;94.29;100928.31;4993189;28;20027;-70
2022/12/11 05:33:24;;;;;;;40.33;19.10;;;;;;;-1.16;93.63;100922.53;4975418;28;20038;-71
2022/12/11 05:35:49;;;;;;;45.17;20.97;;;;;;;-1.10;92.90;100922.22;4975346;28;20056;-70
2022/12/11 05:38:15;;;;;;;34.90;18.00;;;;;;;-1.38;92.07;100918.34;4992824;28;20654;-70
2022/12/11 05:40:40;;;;;;;38.30;16.27;;;;;;;-1.53;89.84;100919.16;4975565;28;20022;-70
2022/12/11 05:43:06;;;;;;;39.63;19.50;;;;;;;-1.57;91.24;100917.59;4975536;28;20109;-71
2022/12/11 05:45:32;;;;;;;35.60;15.90;;;;;;;-1.43;90.87;100915.09;4992727;28;20058;-70
2022/12/11 05:47:57;;;;;;;31.67;16.43;;;;;;;-1.42;90.51;100922.13;4975645;28;20088;-71
2022/12/11 05:50:22;;;;;;;36.23;17.87;;;;;;;-1.43;90.37;100920.41;4975252;28;20030;-70
2022/12/11 05:52:48;;;;;;;31.27;16.53;;;;;;;-1.31;89.63;100918.03;4974974;28;20038;-70
2022/12/11 05:55:13;;;;;;;40.40;18.47;;;;;;;-1.44;90.44;100917.81;4974795;28;20061;-71
2022/12/11 05:57:38;;;;;;;36.83;18.30;;;;;;;-1.54;91.62;100906.81;4974255;28;20036;-70
2022/12/11 06:00:05;;;;;;;36.17;19.23;;;;;;;-1.51;90.76;100905.78;4993125;28;20113;-70
2022/12/11 06:02:30;;;;;;;30.87;16.03;;;;;;;-1.37;90.38;100914.78;4992088;28;20062;-71
2022/12/11 06:04:55;;;;;;;37.53;17.83;;;;;;;-1.52;90.55;100912.91;4992621;28;20070;-71
2022/12/11 06:07:21;;;;;;;38.77;18.90;;;;;;;-1.66;89.81;100912.78;4992385;28;20077;-70
2022/12/11 06:09:46;;;;;;;40.17;20.73;;;;;;;-1.82;91.51;100911.84;4974871;28;20076;-71
2022/12/11 06:12:11;;;;;;;37.10;18.47;;;;;;;-1.79;92.11;100911.69;4991859;28;20026;-69
2022/12/11 06:14:37;;;;;;;35.83;17.97;;;;;;;-1.94;91.82;100919.50;4992247;28;20018;-71
2022/12/11 06:17:02;;;;;;;37.63;18.80;;;;;;;-2.03;92.03;100911.97;4991783;28;20034;-71
2022/12/11 06:19:27;;;;;;;38.07;17.20;;;;;;;-1.96;90.74;100926.69;4975502;28;20030;-70
2022/12/11 06:21:53;;;;;;;39.43;17.87;;;;;;;-1.93;90.11;100918.56;4974547;28;20022;-71
2022/12/11 06:24:18;;;;;;;39.57;18.33;;;;;;;-2.08;91.00;100922.00;4974946;28;20053;-71
2022/12/11 06:26:44;;;;;;;38.23;18.07;;;;;;;-2.20;91.17;100919.94;4974298;28;20548;-70
2022/12/11 06:29:09;;;;;;;39.57;18.27;;;;;;;-2.11;90.83;100916.81;4991993;28;20073;-71
2022/12/11 06:31:34;;;;;;;38.53;18.60;;;;;;;-2.21;90.66;100921.75;4974535;28;20089;-70
2022/12/11 06:34:00;;;;;;;39.23;19.13;;;;;;;-2.26;91.47;100922.91;4974895;28;20026;-71
2022/12/11 06:36:25;;;;;;;41.20;19.57;;;;;;;-2.42;91.89;100916.59;4974565;28;20080;-71
2022/12/11 06:38:51;;;;;;;39.07;18.77;;;;;;;-2.28;90.95;100922.13;4974619;28;20054;-70
2022/12/11 06:41:16;;;;;;;37.43;18.80;;;;;;;-2.52;92.00;100922.38;4974390;28;20022;-71
2022/12/11 06:43:42;;;;;;;36.90;18.00;;;;;;;-2.25;91.20;100919.31;4991691;28;20025;-71
2022/12/11 06:46:10;;;;;;;39.03;17.27;;;;;;;-2.21;90.72;100915.59;4991747;28;20022;-72
2022/12/11 06:48:36;;;;;;;42.87;19.63;;;;;;;-2.27;90.46;100916.75;4991875;28;20037;-72
2022/12/11 06:51:06;;;;;;;38.97;19.03;;;;;;;-2.39;90.96;100922.63;4974296;28;20026;-70
2022/12/11 06:53:31;;;;;;;37.40;18.57;;;;;;;-2.46;90.62;100911.47;4991898;28;20019;-70
2022/12/11 06:56:05;;;;;;;44.03;20.47;;;;;;;-2.63;91.94;100914.06;4991882;28;20037;-72
2022/12/11 06:58:30;;;;;;;44.40;20.27;;;;;;;-2.57;92.64;100924.38;4991825;28;20026;-72
2022/12/11 07:00:56;;;;;;;42.43;19.07;;;;;;;-2.56;92.01;100925.22;4974028;28;20486;-71
2022/12/11 07:03:21;;;;;;;35.23;18.00;;;;;;;-2.69;91.83;100919.66;4974369;28;20030;-72
2022/12/11 07:05:46;;;;;;;42.23;19.37;;;;;;;-2.74;92.08;100929.59;4974313;28;20050;-72
2022/12/11 07:08:11;;;;;;;37.20;18.70;;;;;;;-2.71;92.19;100932.13;4976555;28;20030;-70
2022/12/11 07:10:37;;;;;;;38.30;18.30;;;;;;;-2.78;91.79;100931.56;4978406;28;20141;-71
2022/12/11 07:13:02;;;;;;;41.27;17.70;;;;;;;-2.90;91.99;100939.22;4978069;28;20030;-72
2022/12/11 07:15:27;;;;;;;46.80;20.60;;;;;;;-2.90;91.79;100941.88;4995633;28;20113;-71
2022/12/11 07:17:53;;;;;;;42.77;19.53;;;;;;;-2.96;91.89;100931.56;4977960;28;20073;-72
2022/12/11 07:20:18;;;;;;;45.50;19.80;;;;;;;-3.03;91.78;100942.44;4977911;28;20113;-71
2022/12/11 07:22:43;;;;;;;46.73;20.00;;;;;;;-3.16;92.92;100946.56;4994801;28;20030;-72
2022/12/11 07:25:09;;;;;;;48.57;21.20;;;;;;;-3.13;92.81;100951.75;4995385;28;20026;-72
2022/12/11 07:27:34;;;;;;;41.20;19.60;;;;;;;-3.17;92.59;100955.44;4978221;28;20089;-71
2022/12/11 07:29:59;;;;;;;42.33;20.13;;;;;;;-3.18;92.72;100964.31;4977673;28;20026;-71
2022/12/11 07:32:25;;;;;;;50.00;21.73;;;;;;;-3.32;92.66;100961.44;4977368;28;20030;-71
2022/12/11 07:34:50;;;;;;;46.30;20.57;;;;;;;-3.34;93.70;100965.91;4995468;28;20025;-72
2022/12/11 07:37:16;;;;;;;43.13;19.67;;;;;;;-3.45;93.89;100970.84;4977394;28;20037;-71
2022/12/11 07:39:41;;;;;;;52.40;23.30;;;;;;;-3.47;94.07;100967.38;4995598;28;20066;-70
2022/12/11 07:42:06;;;;;;;45.10;19.57;;;;;;;-3.55;95.18;100976.50;4976963;28;20022;-70
2022/12/11 07:44:32;;;;;;;49.23;21.83;;;;;;;-3.58;95.56;100971.38;4978004;28;20096;-73
2022/12/11 07:46:57;;;;;;;46.63;20.57;;;;;;;-3.61;95.75;100975.91;4977197;28;20066;-71
2022/12/11 07:49:23;;;;;;;48.67;21.00;;;;;;;-3.58;96.47;100976.66;4978121;28;20027;-71
2022/12/11 07:51:48;;;;;;;47.13;20.23;;;;;;;-3.59;96.18;100974.94;4994456;28;20033;-71
2022/12/11 07:54:15;;;;;;;54.23;24.03;;;;;;;-3.66;97.16;100984.03;4978001;28;20113;-72
2022/12/11 07:56:45;;;;;;;58.07;24.00;;;;;;;-3.74;99.21;100978.22;4977115;28;20034;-72
2022/12/11 07:59:11;;;;;;;55.70;22.93;;;;;;;-3.67;99.26;100974.38;4994460;28;20030;-71
2022/12/11 08:01:37;;;;;;;53.57;23.33;;;;;;;-3.64;99.25;100966.34;4976891;28;20034;-71
2022/12/11 08:04:05;;;;;;;54.50;23.07;;;;;;;-3.68;99.76;100959.44;4977859;28;20061;-72
2022/12/11 08:06:33;;;;;;;56.50;22.07;;;;;;;-3.61;99.09;100954.75;4977191;28;20022;-71
2022/12/11 08:09:01;;;;;;;52.80;23.27;;;;;;;-3.57;99.72;100957.19;4977436;28;20030;-71
2022/12/11 08:11:27;;;;;;;53.63;22.23;;;;;;;-3.57;98.77;100962.50;4976844;28;20117;-72
2022/12/11 08:13:53;;;;;;;50.23;22.00;;;;;;;-3.73;98.70;100958.78;4977166;28;20034;-71
2022/12/11 08:16:19;;;;;;;49.70;22.50;;;;;;;-3.55;98.50;100960.63;4977067;28;20032;-71
2022/12/11 08:18:46;;;;;;;54.37;23.07;;;;;;;-3.51;98.98;100960.50;4993263;28;20061;-71
2022/12/11 08:21:14;;;;;;;51.87;23.40;;;;;;;-3.46;99.15;100953.22;4977388;28;20026;-71
2022/12/11 08:23:40;;;;;;;58.60;25.37;;;;;;;-3.45;100.00;100962.91;4994531;28;20026;-72
2022/12/11 08:26:07;;;;;;;49.33;23.07;;;;;;;-3.36;100.00;100959.84;4977035;28;20049;-71
2022/12/11 08:28:33;;;;;;;55.23;24.93;;;;;;;-3.29;100.00;100966.56;4977097;28;20026;-72
2022/12/11 08:30:58;;;;;;;52.17;23.50;;;;;;;-3.14;100.00;100968.53;4977136;28;20030;-71
2022/12/11 08:33:24;;;;;;;51.00;22.23;;;;;;;-3.13;100.00;100967.63;4977015;28;20041;-73
2022/12/11 08:35:50;;;;;;;49.83;21.57;;;;;;;-3.11;99.81;100967.56;4994368;28;20030;-71
2022/12/11 08:38:15;;;;;;;45.30;20.70;;;;;;;-3.13;99.70;100967.63;4976834;28;20042;-70
2022/12/11 08:40:41;;;;;;;45.23;21.23;;;;;;;-2.97;99.56;100973.06;4976912;28;20460;-71
2022/12/11 08:43:06;;;;;;;48.53;21.00;;;;;;;-2.97;99.68;100966.91;4976875;28;20026;-71
2022/12/11 08:45:32;;;;;;;43.07;21.20;;;;;;;-3.03;100.00;100958.31;4994079;28;20033;-70
2022/12/11 08:47:58;;;;;;;46.20;21.70;;;;;;;-2.98;100.00;100959.91;4976762;28;20038;-71
2022/12/11 08:50:24;;;;;;;45.90;21.07;;;;;;;-2.70;100.00;100955.03;4976453;28;20038;-73
2022/12/11 08:52:50;;;;;;;43.87;20.43;;;;;;;-2.65;99.31;100947.75;4976902;28;20104;-71
2022/12/11 08:55:15;;;;;;;43.43;20.47;;;;;;;-2.60;99.42;100945.75;4993804;28;20491;-71
2022/12/11 08:57:41;;;;;;;45.27;21.53;;;;;;;-2.52;98.73;100954.19;4994043;28;20049;-71
2022/12/11 09:00:08;;;;;;;43.30;20.00;;;;;;;-2.36;98.89;100942.81;4977184;28;20026;-72
2022/12/11 09:02:34;;;;;;;48.20;21.83;;;;;;;-2.38;98.64;100944.69;4976240;28;20022;-71
2022/12/11 09:04:59;;;;;;;44.70;20.00;;;;;;;-2.24;97.55;100934.28;4976572;28;20097;-70
2022/12/11 09:07:25;;;;;;;37.43;18.63;;;;;;;-2.26;98.05;100944.13;4976182;28;20044;-69
2022/12/11 09:09:54;;;;;;;44.37;20.37;;;;;;;-2.07;97.61;100929.00;4976141;28;20080;-70
2022/12/11 09:12:19;;;;;;;51.80;22.40;;;;;;;-1.97;97.27;100934.69;4975764;28;20035;-70
2022/12/11 09:14:44;;;;;;;40.00;18.17;;;;;;;-1.82;96.46;100922.47;4976460;28;20034;-71
2022/12/11 09:17:10;;;;;;;45.50;20.13;;;;;;;-1.71;95.45;100922.75;4975640;28;20094;-71
2022/12/11 09:19:35;;;;;;;43.93;19.97;;;;;;;-1.58;94.64;100931.81;4993560;28;20164;-72
2022/12/11 09:22:01;;;;;;;38.73;20.30;;;;;;;-1.66;94.42;100934.00;4975699;28;20030;-73
2022/12/11 09:24:26;;;;;;;34.03;17.00;;;;;;;-1.51;95.38;100927.91;4976077;28;20085;-71
2022/12/11 09:26:51;;;;;;;46.17;20.97;;;;;;;-1.42;93.98;100932.75;4975937;28;20036;-71
2022/12/11 09:29:17;;;;;;;41.17;19.67;;;;;;;-1.50;93.60;100924.31;4975638;28;20061;-70
2022/12/11 09:31:42;;;;;;;42.83;18.93;;;;;;;-1.42;93.82;100932.75;4975369;28;20030;-70
2022/12/11 09:34:10;;;;;;;34.77;18.30;;;;;;;-1.29;93.63;100921.47;4975959;28;20030;-71
2022/12/11 09:36:38;;;;;;;35.37;17.63;;;;;;;-1.32;93.11;100921.63;4977735;28;20031;-72
2022/12/11 09:39:07;;;;;;;42.20;20.43;;;;;;;-1.23;92.89;100921.16;4994481;28;20399;-72
2022/12/11 09:41:37;;;;;;;41.27;18.73;;;;;;;-1.16;92.55;100922.53;4994196;28;20032;-70
2022/12/11 09:44:27;;;;;;;35.13;16.70;;;;;;;-0.98;91.83;100904.72;4994197;28;20021;-71
2022/12/11 09:46:52;;;;;;;38.17;17.83;;;;;;;-0.77;91.43;100913.34;4993122;28;20029;-71
2022/12/11 09:49:40;;;;;;;37.30;18.93;;;;;;;-0.61;89.93;100903.53;4994019;28;20030;-70
2022/12/11 09:52:17;;;;;;;34.40;16.93;;;;;;;-0.78;90.66;100906.28;4995371;28;20089;-71
2022/12/11 09:54:49;;;;;;;36.40;17.47;;;;;;;-0.57;89.51;100905.09;4993655;28;20042;-71
2022/12/11 09:57:22;;;;;;;33.40;16.43;;;;;;;-0.61;89.09;100908.88;4993370;28;20030;-71
2022/12/11 09:59:56;;;;;;;36.00;18.00;;;;;;;-0.47;88.67;100916.91;4993699;28;20033;-71
2022/12/11 10:02:35;;;;;;;35.40;17.80;;;;;;;-0.39;88.81;100920.03;4993454;28;20037;-72
2022/12/11 10:05:21;;;;;;;35.23;18.63;;;;;;;-0.44;88.01;100922.06;4993554;28;20056;-71
2022/12/11 10:08:18;;;;;;;37.13;17.73;;;;;;;-0.46;87.66;100923.94;4992444;28;20041;-70
2022/12/11 10:11:20;;;;;;;33.73;15.80;;;;;;;-0.19;86.96;100910.03;4966222;28;20072;-72
2022/12/11 10:14:09;;;;;;;34.85;18.38;;;;;;;-0.22;87.13;100920.84;4993000;28;20025;-71
2022/12/11 10:16:39;;;;;;;36.43;19.10;;;;;;;-0.10;86.27;100909.50;4993725;28;20120;-72
2022/12/11 10:19:04;;;;;;;37.03;17.93;;;;;;;-0.10;86.73;100912.16;4994747;28;20018;-73
2022/12/11 10:21:40;;;;;;;29.13;15.00;;;;;;;0.03;86.10;100905.16;4993547;28;20026;-72
2022/12/11 10:24:16;;;;;;;41.13;16.63;;;;;;;0.17;84.51;100902.53;4978698;28;20382;-69
2022/12/11 10:26:42;;;;;;;33.90;17.30;;;;;;;0.28;84.24;100903.72;4968041;28;20041;-71
2022/12/11 10:29:14;;;;;;;30.90;16.33;;;;;;;0.11;83.87;100908.22;4969228;28;20113;-72
2022/12/11 10:31:54;;;;;;;30.73;15.67;;;;;;;0.12;83.81;100899.28;4969375;28;20360;-72
2022/12/11 10:34:29;;;;;;;33.20;17.20;;;;;;;0.07;84.29;100893.41;4985197;28;20014;-73
2022/12/11 10:36:54;;;;;;;28.13;15.23;;;;;;;0.28;84.23;100885.94;4968432;28;20030;-72
2022/12/11 10:39:21;;;;;;;31.63;15.47;;;;;;;0.55;82.91;100883.41;4967712;28;20494;-70
2022/12/11 10:41:52;;;;;;;28.80;15.13;;;;;;;0.17;83.36;100878.59;4968397;28;20159;-72
2022/12/11 10:44:28;;;;;;;37.25;15.82;;;;;;;0.11;82.53;100881.59;4968098;28;20023;-72
2022/12/11 10:47:16;;;;;;;27.43;14.20;;;;;;;0.17;82.45;100875.06;4967621;28;20041;-70
2022/12/11 10:49:52;;;;;;;35.73;16.13;;;;;;;0.04;83.38;100869.63;4968594;28;20045;-70
2022/12/11 10:52:22;;;;;;;28.93;15.33;;;;;;;0.42;82.80;100866.47;4968241;28;20133;-70
2022/12/11 10:54:55;;;;;;;30.97;15.87;;;;;;;0.41;81.93;100867.41;4967936;28;20068;-71
2022/12/11 10:57:28;;;;;;;29.20;13.80;;;;;;;0.54;81.07;100868.38;4968251;28;20023;-70
2022/12/11 10:59:54;;;;;;;29.20;14.90;;;;;;;0.80;80.76;100878.28;4984575;28;20033;-69
2022/12/11 11:02:39;;;;;;;30.47;14.60;;;;;;;0.51;81.47;100879.19;4969467;28;20030;-71
2022/12/11 11:05:26;;;;;;;34.70;15.47;;;;;;;0.73;81.35;100876.94;4969154;28;20038;-70
2022/12/11 11:08:12;;;;;;;32.60;15.97;;;;;;;0.95;79.46;100872.94;4968993;28;20076;-69
2022/12/11 11:10:37;;;;;;;27.40;14.47;;;;;;;0.74;80.88;100875.13;4967593;28;20023;-72
2022/12/11 11:13:02;;;;;;;34.10;15.10;;;;;;;1.02;79.84;100874.25;4968899;28;20117;-70
2022/12/11 11:15:29;;;;;;;29.33;14.87;;;;;;;1.13;79.32;100874.44;4967714;28;20031;-70
2022/12/11 11:18:16;;;;;;;29.23;14.23;;;;;;;1.31;78.34;100875.94;4968361;28;20030;-70
2022/12/11 11:20:46;;;;;;;29.27;15.60;;;;;;;1.20;79.28;100878.41;4947636;28;20098;-71
2022/12/11 11:23:29;;;;;;;30.33;16.57;;;;;;;1.38;78.65;100886.19;4969443;28;20026;-72
2022/12/11 11:26:08;;;;;;;31.60;16.63;;;;;;;1.47;78.00;100874.91;4967901;28;20032;-71
2022/12/11 11:28:40;;;;;;;31.65;15.27;;;;;;;1.39;78.19;100871.91;4968073;28;20137;-72
2022/12/11 11:31:10;;;;;;;30.63;15.53;;;;;;;1.30;77.32;100868.00;4986767;28;20030;-71